Ceylon, Canada
Current Conditions -  °F | °C
As of 4:00 PM on Thursday 27 Nov 2014 (Local Time) from CYQR Reporting Station
Light Snow Light Snow  
Wind Chill:   Ceiling: 7500
Heat Index: 16°   Visibility: 4mi
Dew Point: 12°   Wind: 14mph
Humidity: 86%   Direction: 100°E
Pressure: 29.94"   Gusts: NA
Location:  49.45°N, 104.6°W
Report Text: CYQR 272200Z 10012KT 4SM -SN BR DRSN SCT025 OVC075 M09/M11 A2994 RMK SC3AC5 SLP183
Loading
Personal Weather Stations






























Interactive Weather Map New forecast layout! Learn more

10-Day Weather Forecast

Advertisements
Track Severe Weather on mobile